Observation data for Tatum on 11/17/2019      Previous  Date       Current Mesonet Observations  Soil Data  Daily Summary Page  Observations in Plain Language
KTAT 170600Z 23010KT 06/M00 A2999 RMK A01 T00561002  RH  067%=      5-min Rain = 0
KTAT 170605Z 23009KT 06/M00 A2999 RMK A01 T00561003  RH  066%=      5-min Rain = 0
KTAT 170610Z 23010KT 06/M00 A2999 RMK A01 T00571003  RH  066%=      5-min Rain = 0
KTAT 170615Z 23010KT 06/M00 A2999 RMK A01 T00601004  RH  064%=      5-min Rain = 0
KTAT 170620Z 23010KT 06/M01 A2999 RMK A01 T00591005  RH  064%=      5-min Rain = 0
KTAT 170625Z 23010KT 06/M01 A30 RMK A01 T00581005  RH  065%=      5-min Rain = 0
KTAT 170630Z 24009KT 06/M01 A30 RMK A01 T00561006  RH  065%=      5-min Rain = 0
KTAT 170635Z 24008KT 05/M01 A30 RMK A01 T00511007  RH  067%=      5-min Rain = 0
KTAT 170640Z 25007KT 05/M01 A30 RMK A01 T00461008  RH  068%=      5-min Rain = 0
KTAT 170645Z 26006KT 05/M01 A2999 RMK A01 T00451008  RH  069%=      5-min Rain = 0
KTAT 170650Z 26007G13KT 05/M01 A2999 RMK A01 T00511007  RH  067%=      5-min Rain = 0
KTAT 170655Z 27014KT 08/M01 A2999 RMK A01 T00831007  RH  054%=      5-min Rain = 0
KTAT 170700Z 27015KT 10/M01 A2999 RMK A01 T01001012  RH  046%=      5-min Rain = 0
KTAT 170705Z 27014KT 10/M01 A2999 RMK A01 T01001014  RH  045%=      5-min Rain = 0
KTAT 170710Z 27013KT 10/M02 A2999 RMK A01 T01001015  RH  045%=      5-min Rain = 0
KTAT 170715Z 27012KT 10/M02 A30 RMK A01 T00991016  RH  045%=      5-min Rain = 0
KTAT 170720Z 28010KT 10/M02 A30 RMK A01 T01001017  RH  044%=      5-min Rain = 0
KTAT 170725Z 27009KT 10/M02 A30 RMK A01 T00981017  RH  045%=      5-min Rain = 0
KTAT 170730Z 27008KT 09/M02 A3001 RMK A01 T00941017  RH  046%=      5-min Rain = 0
KTAT 170735Z 27009KT 09/M02 A30 RMK A01 T00891017  RH  048%=      5-min Rain = 0
KTAT 170740Z 28009KT 09/M02 A30 RMK A01 T00881017  RH  048%=      5-min Rain = 0
KTAT 170745Z 28009KT 08/M02 A30 RMK A01 T00831017  RH  050%=      5-min Rain = 0
KTAT 170750Z 29009KT 08/M02 A30 RMK A01 T00791016  RH  051%=      5-min Rain = 0
KTAT 170755Z 29009KT 08/M02 A3001 RMK A01 T00771016  RH  052%=      5-min Rain = 0
KTAT 170800Z 29010KT 08/M02 A3001 RMK A01 T00771016  RH  052%=      5-min Rain = 0
KTAT 170805Z 30011KT 08/M02 A3001 RMK A01 T00811016  RH  051%=      5-min Rain = 0
KTAT 170810Z 30013KT 09/M02 A3001 RMK A01 T00851018  RH  049%=      5-min Rain = 0
KTAT 170815Z 30014KT 09/M02 A3001 RMK A01 T00941021  RH  045%=      5-min Rain = 0
KTAT 170820Z 30016KT 10/M02 A3001 RMK A01 T01001024  RH  042%=      5-min Rain = 0
KTAT 170825Z 30015G20KT 10/M03 A3001 RMK A01 T01001026  RH  041%=      5-min Rain = 0
KTAT 170830Z 31014G19KT 10/M03 A3002 RMK A01 T00981026  RH  042%=      5-min Rain = 0
KTAT 170835Z 30014KT 10/M03 A3002 RMK A01 T00981026  RH  042%=      5-min Rain = 0
KTAT 170840Z 31015KT 10/M03 A3002 RMK A01 T00951026  RH  043%=      5-min Rain = 0
KTAT 170845Z 31016G21KT 09/M02 A3003 RMK A01 T00921024  RH  044%=      5-min Rain = 0
KTAT 170850Z 32017G22KT 09/M03 A3003 RMK A01 T00941025  RH  044%=      5-min Rain = 0
KTAT 170855Z 34017G22KT 10/M03 A3003 RMK A01 T00991025  RH  042%=      5-min Rain = 0
KTAT 170900Z 35018G24KT 10/M03 A3003 RMK A01 T01031027  RH  040%=      5-min Rain = 0
KTAT 170905Z 36019G24KT 10/M03 A3003 RMK A01 T01041027  RH  040%=      5-min Rain = 0
KTAT 170910Z 36018KT 10/M03 A3003 RMK A01 T01021027  RH  040%=      5-min Rain = 0
KTAT 170915Z 36017G22KT 10/M03 A3003 RMK A01 T01001028  RH  041%=      5-min Rain = 0
KTAT 170920Z 36016KT 10/M03 A3003 RMK A01 T00981028  RH  041%=      5-min Rain = 0
KTAT 170925Z 36016KT 10/M03 A3004 RMK A01 T00961028  RH  042%=      5-min Rain = 0
KTAT 170930Z 36017KT 10/M03 A3004 RMK A01 T00951027  RH  043%=      5-min Rain = 0
KTAT 170935Z 36017KT 09/M03 A3004 RMK A01 T00931026  RH  043%=      5-min Rain = 0
KTAT 170940Z 36018G23KT 09/M03 A3005 RMK A01 T00931026  RH  043%=      5-min Rain = 0
KTAT 170945Z 35017KT 09/M03 A3005 RMK A01 T00891026  RH  044%=      5-min Rain = 0
KTAT 170950Z 36018G23KT 09/M03 A3005 RMK A01 T00901026  RH  044%=      5-min Rain = 0
KTAT 170955Z 00019G25KT 09/M03 A3005 RMK A01 T00911027  RH  044%=      5-min Rain = 0
KTAT 171000Z 36019G24KT 09/M03 A3006 RMK A01 T00911027  RH  044%=      5-min Rain = 0
KTAT 171005Z 36018G23KT 09/M03 A3006 RMK A01 T00881027  RH  045%=      5-min Rain = 0
KTAT 171010Z 36019G24KT 09/M03 A3007 RMK A01 T00881027  RH  045%=      5-min Rain = 0
KTAT 171015Z 36019KT 09/M03 A3007 RMK A01 T00861028  RH  045%=      5-min Rain = 0
KTAT 171020Z 00020G25KT 09/M03 A3007 RMK A01 T00861028  RH  045%=      5-min Rain = 0
KTAT 171025Z 01022KT 09/M03 A3007 RMK A01 T00871029  RH  044%=      5-min Rain = 0
KTAT 171030Z 01019G25KT 09/M03 A3007 RMK A01 T00861028  RH  045%=      5-min Rain = 0
KTAT 171035Z 00020KT 09/M03 A3008 RMK A01 T00851028  RH  045%=      5-min Rain = 0
KTAT 171040Z 01021KT 08/M03 A3008 RMK A01 T00841028  RH  045%=      5-min Rain = 0
KTAT 171045Z 01020G25KT 08/M03 A3008 RMK A01 T00831028  RH  046%=      5-min Rain = 0
KTAT 171050Z 00018KT 08/M03 A3009 RMK A01 T00801028  RH  047%=      5-min Rain = 0
KTAT 171055Z 00017KT 08/M03 A3009 RMK A01 T00781027  RH  048%=      5-min Rain = 0
KTAT 171100Z 00018G24KT 08/M03 A3009 RMK A01 T00771026  RH  048%=      5-min Rain = 0
KTAT 171105Z 01019G24KT 08/M03 A301 RMK A01 T00751025  RH  049%=      5-min Rain = 0
KTAT 171110Z 01019KT 08/M02 A301 RMK A01 T00751024  RH  050%=      5-min Rain = 0
KTAT 171115Z 01020G28KT 08/M02 A301 RMK A01 T00751022  RH  050%=      5-min Rain = 0
KTAT 171120Z 01020G25KT 07/M02 A301 RMK A01 T00741022  RH  051%=      5-min Rain = 0
KTAT 171125Z 01020G26KT 07/M02 A3011 RMK A01 T00721021  RH  052%=      5-min Rain = 0
KTAT 171130Z 01020G25KT 07/M02 A3011 RMK A01 T00711021  RH  053%=      5-min Rain = 0
KTAT 171135Z 01020G25KT 07/M02 A3011 RMK A01 T00701020  RH  053%=      5-min Rain = 0
KTAT 171140Z 01020G25KT 07/M02 A3011 RMK A01 T00691019  RH  054%=      5-min Rain = 0
KTAT 171145Z 01019G26KT 07/M02 A3012 RMK A01 T00681019  RH  054%=      5-min Rain = 0
KTAT 171150Z 00021G26KT 07/M02 A3012 RMK A01 T00671018  RH  055%=      5-min Rain = 0
KTAT 171155Z 00020KT 07/M02 A3012 RMK A01 T00661018  RH  055%=      5-min Rain = 0
KTAT 171200Z 00019G26KT 06/M02 A3012 RMK A01 T00641018  RH  056%=      5-min Rain = 0
KTAT 171205Z 00019KT 06/M02 A3013 RMK A01 T00631017  RH  057%=      5-min Rain = 0
KTAT 171210Z 00018G23KT 06/M02 A3013 RMK A01 T00621017  RH  057%=      5-min Rain = 0
KTAT 171215Z 00019KT 06/M02 A3013 RMK A01 T00611017  RH  058%=      5-min Rain = 0
KTAT 171220Z 00018G24KT 06/M02 A3013 RMK A01 T00601016  RH  058%=      5-min Rain = 0
KTAT 171225Z 00018G23KT 06/M02 A3013 RMK A01 T00591016  RH  059%=      5-min Rain = 0
KTAT 171230Z 01019G24KT 06/M02 A3014 RMK A01 T00581015  RH  060%=      5-min Rain = 0
KTAT 171235Z 01018G24KT 06/M02 A3014 RMK A01 T00581015  RH  060%=      5-min Rain = 0
KTAT 171240Z 00017G24KT 06/M02 A3014 RMK A01 T00571015  RH  060%=      5-min Rain = 0
KTAT 171245Z 01018G23KT 06/M01 A3015 RMK A01 T00561014  RH  061%=      5-min Rain = 0
KTAT 171250Z 01017G22KT 06/M01 A3015 RMK A01 T00561014  RH  061%=      5-min Rain = 0
KTAT 171255Z 01016KT 05/M01 A3016 RMK A01 T00541014  RH  062%=      5-min Rain = 0
KTAT 171300Z 01016G22KT 05/M01 A3016 RMK A01 T00541013  RH  062%=      5-min Rain = 0
KTAT 171305Z 01016G22KT 05/M01 A3016 RMK A01 T00531013  RH  063%=      5-min Rain = 0
KTAT 171310Z 01018KT 05/M01 A3017 RMK A01 T00541012  RH  063%=      5-min Rain = 0
KTAT 171315Z 01014G19KT 05/M01 A3017 RMK A01 T00531013  RH  063%=      5-min Rain = 0
KTAT 171320Z 01015G20KT 05/M01 A3018 RMK A01 T00511012  RH  064%=      5-min Rain = 0
KTAT 171325Z 01017G22KT 05/M01 A3018 RMK A01 T00521012  RH  064%=      5-min Rain = 0
KTAT 171330Z 01016G21KT 05/M01 A3018 RMK A01 T00511012  RH  065%=      5-min Rain = 0
KTAT 171335Z 01016KT 05/M01 A3018 RMK A01 T00501012  RH  065%=      5-min Rain = 0
KTAT 171340Z 01016G21KT 05/M01 A3019 RMK A01 T00501011  RH  065%=      5-min Rain = 0
KTAT 171345Z 01015KT 05/M01 A3019 RMK A01 T00501011  RH  065%=      5-min Rain = 0
KTAT 171350Z 01015G20KT 05/M01 A3019 RMK A01 T00501011  RH  065%=      5-min Rain = 0
KTAT 171355Z 01017G22KT 05/M01 A302 RMK A01 T00511010  RH  065%=      5-min Rain = 0
KTAT 171400Z 01017KT 05/M01 A302 RMK A01 T00531010  RH  065%=      5-min Rain = 0
KTAT 171405Z 01015KT 05/M01 A3021 RMK A01 T00531009  RH  065%=      5-min Rain = 0
KTAT 171410Z 01016KT 06/M01 A3021 RMK A01 T00551008  RH  064%=      5-min Rain = 0
KTAT 171415Z 02017G22KT 06/M01 A3021 RMK A01 T00561007  RH  064%=      5-min Rain = 0
KTAT 171420Z 01017G23KT 06/M01 A3021 RMK A01 T00581006  RH  064%=      5-min Rain = 0
KTAT 171425Z 01018G24KT 06/M01 A3022 RMK A01 T00601005  RH  063%=      5-min Rain = 0
KTAT 171430Z 01017G23KT 06/M00 A3021 RMK A01 T00621004  RH  063%=      5-min Rain = 0
KTAT 171435Z 01019G25KT 06/M00 A3022 RMK A01 T00641003  RH  063%=      5-min Rain = 0
KTAT 171440Z 01020G25KT 07/M00 A3021 RMK A01 T00651003  RH  063%=      5-min Rain = 0
KTAT 171445Z 02018G24KT 07/M00 A3022 RMK A01 T00671002  RH  062%=      5-min Rain = 0
KTAT 171450Z 02017G24KT 07/M00 A3022 RMK A01 T00691001  RH  062%=      5-min Rain = 0
KTAT 171455Z 02020KT 07/00 A3022 RMK A01 T007000-0  RH  062%=      5-min Rain = 0
KTAT 171500Z 02020G26KT 07/00 A3022 RMK A01 T00710001  RH  062%=      5-min Rain = 0
KTAT 171505Z 02018G24KT 07/00 A3022 RMK A01 T00730002  RH  061%=      5-min Rain = 0
KTAT 171510Z 02018G23KT 07/00 A3022 RMK A01 T00740002  RH  061%=      5-min Rain = 0
KTAT 171515Z 02017G23KT 08/00 A3023 RMK A01 T00780004  RH  060%=      5-min Rain = 0
KTAT 171520Z 02019G24KT 08/00 A3023 RMK A01 T00780003  RH  060%=      5-min Rain = 0
KTAT 171525Z 02017G22KT 08/00 A3023 RMK A01 T00800004  RH  059%=      5-min Rain = 0
KTAT 171530Z 02017G22KT 08/00 A3023 RMK A01 T00820004  RH  059%=      5-min Rain = 0
KTAT 171535Z 01018G24KT 08/00 A3023 RMK A01 T00830004  RH  058%=      5-min Rain = 0
KTAT 171540Z 02018G25KT 09/01 A3024 RMK A01 T00860005  RH  057%=      5-min Rain = 0
KTAT 171545Z 03018KT 09/01 A3024 RMK A01 T00870005  RH  057%=      5-min Rain = 0
KTAT 171550Z 02017KT 09/01 A3023 RMK A01 T00890005  RH  056%=      5-min Rain = 0
KTAT 171555Z 02015KT 09/01 A3023 RMK A01 T00910006  RH  056%=      5-min Rain = 0
KTAT 171600Z 02017KT 09/01 A3023 RMK A01 T00920005  RH  055%=      5-min Rain = 0
KTAT 171605Z 02017KT 09/01 A3023 RMK A01 T00930005  RH  055%=      5-min Rain = 0
KTAT 171610Z 02015G20KT 10/01 A3023 RMK A01 T00970007  RH  054%=      5-min Rain = 0
KTAT 171615Z 03016G21KT 10/01 A3023 RMK A01 T00970005  RH  053%=      5-min Rain = 0
KTAT 171620Z 02014G19KT 10/01 A3023 RMK A01 T01000007  RH  053%=      5-min Rain = 0
KTAT 171625Z 02013G19KT 10/01 A3024 RMK A01 T01020007  RH  052%=      5-min Rain = 0
KTAT 171630Z 02014KT 10/01 A3024 RMK A01 T01020006  RH  052%=      5-min Rain = 0
KTAT 171635Z 02014KT 10/01 A3023 RMK A01 T01040007  RH  052%=      5-min Rain = 0
KTAT 171640Z 02013KT 10/01 A3023 RMK A01 T01040007  RH  051%=      5-min Rain = 0
KTAT 171645Z 03014KT 11/01 A3023 RMK A01 T01100008  RH  050%=      5-min Rain = 0
KTAT 171650Z 02014KT 11/01 A3023 RMK A01 T01110008  RH  050%=      5-min Rain = 0
KTAT 171655Z 03014KT 11/01 A3023 RMK A01 T01110007  RH  049%=      5-min Rain = 0
KTAT 171700Z 02013KT 11/01 A3023 RMK A01 T01140009  RH  049%=      5-min Rain = 0
KTAT 171705Z 02013KT 12/01 A3023 RMK A01 T01150009  RH  049%=      5-min Rain = 0
KTAT 171710Z 03015KT 12/01 A3022 RMK A01 T01160008  RH  048%=      5-min Rain = 0
KTAT 171715Z 03015KT 12/01 A3022 RMK A01 T01180009  RH  048%=      5-min Rain = 0
KTAT 171720Z 04015KT 12/01 A3022 RMK A01 T01210009  RH  047%=      5-min Rain = 0
KTAT 171725Z 02015KT 12/01 A3022 RMK A01 T01200008  RH  047%=      5-min Rain = 0
KTAT 171730Z 02015G20KT 12/01 A3022 RMK A01 T01190007  RH  047%=      5-min Rain = 0
KTAT 171735Z 02013KT 12/01 A3022 RMK A01 T01220007  RH  046%=      5-min Rain = 0
KTAT 171740Z 02013G19KT 12/01 A3022 RMK A01 T01210007  RH  046%=      5-min Rain = 0
KTAT 171745Z 03011KT 13/01 A3021 RMK A01 T01260009  RH  045%=      5-min Rain = 0
KTAT 171750Z 03011KT 13/01 A3021 RMK A01 T01290008  RH  044%=      5-min Rain = 0
KTAT 171755Z 02011KT 13/01 A3021 RMK A01 T01270007  RH  044%=      5-min Rain = 0
KTAT 171800Z 03010KT 13/01 A3021 RMK A01 T01260006  RH  044%=      5-min Rain = 0
KTAT 171805Z 04010KT 13/01 A3021 RMK A01 T01300007  RH  043%=      5-min Rain = 0
KTAT 171810Z 03012KT 13/01 A3021 RMK A01 T01320006  RH  042%=      5-min Rain = 0
KTAT 171815Z 04010KT 13/01 A302 RMK A01 T01340007  RH  042%=      5-min Rain = 0
KTAT 171820Z 04012G17KT 14/01 A302 RMK A01 T01380006  RH  041%=      5-min Rain = 0
KTAT 171825Z 03009KT 14/01 A302 RMK A01 T01380005  RH  041%=      5-min Rain = 0
KTAT 171830Z 03009G15KT 14/00 A302 RMK A01 T01360004  RH  041%=      5-min Rain = 0
KTAT 171835Z 01008G13KT 14/00 A302 RMK A01 T01360004  RH  041%=      5-min Rain = 0
KTAT 171840Z 04007G15KT 14/01 A302 RMK A01 T01410006  RH  040%=      5-min Rain = 0
KTAT 171845Z 05007KT 14/00 A3019 RMK A01 T01440004  RH  039%=      5-min Rain = 0
KTAT 171850Z 04007KT 15/00 A3019 RMK A01 T01450002  RH  038%=      5-min Rain = 0
KTAT 171855Z 02007KT 14/00 A3019 RMK A01 T01430001  RH  038%=      5-min Rain = 0
KTAT 171900Z 02007KT 14/00 A3019 RMK A01 T01390002  RH  040%=      5-min Rain = 0
KTAT 171905Z 02006G11KT 14/00 A3019 RMK A01 T01410001  RH  039%=      5-min Rain = 0
KTAT 171910Z 02006KT 14/00 A3018 RMK A01 T01410001  RH  039%=      5-min Rain = 0
KTAT 171915Z 02004KT 14/00 A3018 RMK A01 T01420003  RH  039%=      5-min Rain = 0
KTAT 171920Z 01006KT 15/00 A3018 RMK A01 T01450003  RH  038%=      5-min Rain = 0
KTAT 171925Z 03005KT 15/00 A3018 RMK A01 T01480003  RH  038%=      5-min Rain = 0
KTAT 171930Z 01005KT 15/00 A3018 RMK A01 T01470001  RH  037%=      5-min Rain = 0
KTAT 171935Z 36006G11KT 14/00 A3018 RMK A01 T014400-0  RH  038%=      5-min Rain = 0
KTAT 171940Z 01003KT 15/M00 A3018 RMK A01 T01451001  RH  037%=      5-min Rain = 0
KTAT 171945Z 03003KT 15/M00 A3018 RMK A01 T01471001  RH  037%=      5-min Rain = 0
KTAT 171950Z 03004KT 15/M00 A3017 RMK A01 T01491002  RH  036%=      5-min Rain = 0
KTAT 171955Z 03003KT 15/M00 A3017 RMK A01 T01501002  RH  036%=      5-min Rain = 0
KTAT 172000Z 31003KT 15/M00 A3017 RMK A01 T01521001  RH  036%=      5-min Rain = 0
KTAT 172005Z 31004KT 15/M00 A3016 RMK A01 T01511001  RH  036%=      5-min Rain = 0
KTAT 172010Z 24004KT 15/00 A3016 RMK A01 T015200-0  RH  036%=      5-min Rain = 0
KTAT 172015Z 30004KT 15/M00 A3016 RMK A01 T01541001  RH  035%=      5-min Rain = 0
KTAT 172020Z 32001KT 15/M00 A3016 RMK A01 T01531001  RH  035%=      5-min Rain = 0
KTAT 172025Z 31002KT 16/00 A3016 RMK A01 T01610001  RH  034%=      5-min Rain = 0
KTAT 172030Z 30003KT 16/M00 A3016 RMK A01 T01581003  RH  034%=      5-min Rain = 0
KTAT 172035Z 34002KT 16/M00 A3016 RMK A01 T01571002  RH  034%=      5-min Rain = 0
KTAT 172040Z 35002KT 16/M00 A3016 RMK A01 T01571003  RH  034%=      5-min Rain = 0
KTAT 172045Z 28002KT 16/M00 A3016 RMK A01 T01571003  RH  034%=      5-min Rain = 0
KTAT 172050Z 24003KT 16/M00 A3016 RMK A01 T01581003  RH  034%=      5-min Rain = 0
KTAT 172055Z 26003KT 16/M00 A3015 RMK A01 T01601002  RH  033%=      5-min Rain = 0
KTAT 172100Z 31003KT 16/M00 A3015 RMK A01 T01591003  RH  034%=      5-min Rain = 0
KTAT 172105Z 34003KT 16/M00 A3015 RMK A01 T01571003  RH  034%=      5-min Rain = 0
KTAT 172110Z 28002G8KT 16/M00 A3014 RMK A01 T01601002  RH  033%=      5-min Rain = 0
KTAT 172115Z 28002KT 16/M00 A3014 RMK A01 T01571003  RH  034%=      5-min Rain = 0
KTAT 172120Z 24001KT 16/M00 A3014 RMK A01 T01591002  RH  034%=      5-min Rain = 0
KTAT 172125Z 20003KT 17/M00 A3013 RMK A01 T01661002  RH  032%=      5-min Rain = 0
KTAT 172130Z 20004KT 16/M01 A3013 RMK A01 T01641005  RH  032%=      5-min Rain = 0
KTAT 172135Z 22005KT 16/M00 A3013 RMK A01 T01611004  RH  033%=      5-min Rain = 0
KTAT 172140Z 23003KT 16/M00 A3013 RMK A01 T01611004  RH  033%=      5-min Rain = 0
KTAT 172145Z 27004KT 16/M01 A3013 RMK A01 T01581005  RH  033%=      5-min Rain = 0
KTAT 172150Z 25003KT 16/M01 A3013 RMK A01 T01561005  RH  034%=      5-min Rain = 0
KTAT 172155Z 19003KT 16/M00 A3013 RMK A01 T01641002  RH  033%=      5-min Rain = 0
KTAT 172200Z 25003KT 16/M01 A3013 RMK A01 T01631006  RH  032%=      5-min Rain = 0
KTAT 172205Z 25004KT 16/M01 A3013 RMK A01 T01601007  RH  032%=      5-min Rain = 0
KTAT 172210Z 22004KT 16/M01 A3013 RMK A01 T01601006  RH  033%=      5-min Rain = 0
KTAT 172215Z 21006KT 16/M01 A3013 RMK A01 T01611006  RH  032%=      5-min Rain = 0
KTAT 172220Z 19003KT 16/M00 A3012 RMK A01 T01641004  RH  032%=      5-min Rain = 0
KTAT 172225Z 19002KT 17/M01 A3012 RMK A01 T01661007  RH  031%=      5-min Rain = 0
KTAT 172230Z 20002KT 16/M01 A3012 RMK A01 T01611008  RH  032%=      5-min Rain = 0
KTAT 172235Z 20004KT 16/M01 A3012 RMK A01 T01571007  RH  033%=      5-min Rain = 0
KTAT 172240Z 22005KT 16/M01 A3012 RMK A01 T01571007  RH  033%=      5-min Rain = 0
KTAT 172245Z 23003KT 15/M01 A3012 RMK A01 T01531008  RH  034%=      5-min Rain = 0
KTAT 172250Z 24003KT 15/M01 A3011 RMK A01 T01541007  RH  033%=      5-min Rain = 0
KTAT 172255Z 22004KT 15/M01 A3011 RMK A01 T01501006  RH  035%=      5-min Rain = 0
KTAT 172300Z 22003KT 15/M01 A3011 RMK A01 T01481006  RH  035%=      5-min Rain = 0
KTAT 172305Z 22003KT 15/M01 A3011 RMK A01 T01461005  RH  036%=      5-min Rain = 0
KTAT 172310Z 17002KT 15/M00 A3011 RMK A01 T01471003  RH  036%=      5-min Rain = 0
KTAT 172315Z 20002KT 15/M01 A3011 RMK A01 T01461005  RH  036%=      5-min Rain = 0
KTAT 172320Z 21003KT 14/M00 A3011 RMK A01 T01411002  RH  038%=      5-min Rain = 0
KTAT 172325Z 21003KT 13/00 A3011 RMK A01 T01340000  RH  040%=      5-min Rain = 0
KTAT 172330Z 20003KT 13/00 A3011 RMK A01 T01280001  RH  042%=      5-min Rain = 0
KTAT 172335Z 17003KT 12/00 A3011 RMK A01 T01240000  RH  043%=      5-min Rain = 0
KTAT 172340Z 16004KT 12/00 A3011 RMK A01 T01190000  RH  045%=      5-min Rain = 0
KTAT 172345Z 15005KT 11/M00 A3012 RMK A01 T01121003  RH  046%=      5-min Rain = 0
KTAT 172350Z 15005KT 10/M00 A3012 RMK A01 T01041002  RH  048%=      5-min Rain = 0
KTAT 172355Z 15005KT 10/M00 A3012 RMK A01 T00991001  RH  050%=      5-min Rain = 0
KTAT 180000Z 14005KT 09/M00 A3012 RMK A01 T00931001  RH  052%=      5-min Rain = 0
KTAT 180005Z 13005KT 09/M00 A3012 RMK A01 T00891002  RH  054%=      5-min Rain = 0
KTAT 180010Z 13006KT 09/00 A3012 RMK A01 T008500-0  RH  056%=      5-min Rain = 0
KTAT 180015Z 13005KT 09/00 A3012 RMK A01 T00860002  RH  056%=      5-min Rain = 0
KTAT 180020Z 13005KT 09/00 A3012 RMK A01 T00870001  RH  055%=      5-min Rain = 0
KTAT 180025Z 13005KT 09/00 A3012 RMK A01 T00880001  RH  055%=      5-min Rain = 0
KTAT 180030Z 13005KT 09/M00 A3012 RMK A01 T00871001  RH  055%=      5-min Rain = 0
KTAT 180035Z 14005KT 08/M00 A3012 RMK A01 T00821002  RH  056%=      5-min Rain = 0
KTAT 180040Z 15006KT 08/M00 A3012 RMK A01 T00771001  RH  058%=      5-min Rain = 0
KTAT 180045Z 15006KT 07/M00 A3012 RMK A01 T00711002  RH  061%=      5-min Rain = 0
KTAT 180050Z 15007KT 07/00 A3012 RMK A01 T006900-0  RH  062%=      5-min Rain = 0
KTAT 180055Z 15007KT 07/M00 A3012 RMK A01 T00681001  RH  062%=      5-min Rain = 0
KTAT 180100Z 15007KT 07/M00 A3012 RMK A01 T00661004  RH  062%=      5-min Rain = 0
KTAT 180105Z 16007KT 06/M00 A3012 RMK A01 T00621004  RH  063%=      5-min Rain = 0
KTAT 180110Z 16007KT 06/M00 A3012 RMK A01 T00601004  RH  064%=      5-min Rain = 0
KTAT 180115Z 16007KT 06/M01 A3012 RMK A01 T00571005  RH  065%=      5-min Rain = 0
KTAT 180120Z 17007KT 06/M00 A3013 RMK A01 T00571003  RH  066%=      5-min Rain = 0
KTAT 180125Z 17007KT 06/M00 A3012 RMK A01 T00551004  RH  066%=      5-min Rain = 0
KTAT 180130Z 17007KT 05/M00 A3013 RMK A01 T00531004  RH  068%=      5-min Rain = 0
KTAT 180135Z 18007KT 05/M00 A3013 RMK A01 T00511003  RH  069%=      5-min Rain = 0
KTAT 180140Z 18007KT 05/M00 A3013 RMK A01 T00491003  RH  070%=      5-min Rain = 0
KTAT 180145Z 18007KT 05/M00 A3013 RMK A01 T00491002  RH  071%=      5-min Rain = 0
KTAT 180150Z 19008KT 05/M00 A3013 RMK A01 T00501001  RH  071%=      5-min Rain = 0
KTAT 180155Z 19009KT 05/M00 A3013 RMK A01 T00501001  RH  071%=      5-min Rain = 0
KTAT 180200Z 20008KT 05/00 A3013 RMK A01 T00520000  RH  070%=      5-min Rain = 0
KTAT 180205Z 20009KT 06/00 A3013 RMK A01 T00550001  RH  069%=      5-min Rain = 0
KTAT 180210Z 20009KT 06/00 A3013 RMK A01 T00570001  RH  068%=      5-min Rain = 0
KTAT 180215Z 20008KT 06/00 A3013 RMK A01 T00580001  RH  068%=      5-min Rain = 0
KTAT 180220Z 20007KT 06/00 A3013 RMK A01 T00570001  RH  068%=      5-min Rain = 0
KTAT 180225Z 19007KT 06/00 A3013 RMK A01 T00560000  RH  068%=      5-min Rain = 0
KTAT 180230Z 20006KT 05/M00 A3013 RMK A01 T00541001  RH  069%=      5-min Rain = 0
KTAT 180235Z 20007KT 05/M00 A3013 RMK A01 T00501002  RH  070%=      5-min Rain = 0
KTAT 180240Z 21008KT 05/M00 A3013 RMK A01 T00461002  RH  072%=      5-min Rain = 0
KTAT 180245Z 21007KT 05/M00 A3014 RMK A01 T00461001  RH  072%=      5-min Rain = 0
KTAT 180250Z 21007KT 05/M00 A3014 RMK A01 T00471001  RH  072%=      5-min Rain = 0
KTAT 180255Z 22007KT 04/M00 A3014 RMK A01 T00441002  RH  073%=      5-min Rain = 0
KTAT 180300Z 21006KT 04/M00 A3014 RMK A01 T00421003  RH  073%=      5-min Rain = 0
KTAT 180305Z 22006KT 04/M01 A3014 RMK A01 T00391005  RH  074%=      5-min Rain = 0
KTAT 180310Z 21007KT 04/M01 A3014 RMK A01 T00371005  RH  075%=      5-min Rain = 0
KTAT 180315Z 21007KT 04/M01 A3014 RMK A01 T00351005  RH  076%=      5-min Rain = 0
KTAT 180320Z 21006KT 04/M01 A3014 RMK A01 T00361005  RH  076%=      5-min Rain = 0
KTAT 180325Z 20006KT 04/M01 A3014 RMK A01 T00371005  RH  075%=      5-min Rain = 0
KTAT 180330Z 21005KT 04/M01 A3013 RMK A01 T00361006  RH  075%=      5-min Rain = 0
KTAT 180335Z 21005KT 04/M01 A3013 RMK A01 T00351006  RH  075%=      5-min Rain = 0
KTAT 180340Z 21006KT 04/M01 A3013 RMK A01 T00351007  RH  075%=      5-min Rain = 0
KTAT 180345Z 21006KT 03/M01 A3013 RMK A01 T00331007  RH  076%=      5-min Rain = 0
KTAT 180350Z 21007KT 03/M01 A3013 RMK A01 T00311008  RH  076%=      5-min Rain = 0
KTAT 180355Z 21007KT 03/M01 A3013 RMK A01 T00291009  RH  077%=      5-min Rain = 0
KTAT 180400Z 22008KT 03/M01 A3013 RMK A01 T00271008  RH  078%=      5-min Rain = 0
KTAT 180405Z 22008KT 03/M01 A3013 RMK A01 T00271008  RH  079%=      5-min Rain = 0
KTAT 180410Z 22008KT 03/M01 A3013 RMK A01 T00271007  RH  079%=      5-min Rain = 0
KTAT 180415Z 22007KT 03/M01 A3013 RMK A01 T00271007  RH  079%=      5-min Rain = 0
KTAT 180420Z 22007KT 03/M01 A3013 RMK A01 T00281007  RH  078%=      5-min Rain = 0
KTAT 180425Z 22007KT 03/M01 A3012 RMK A01 T00261008  RH  079%=      5-min Rain = 0
KTAT 180430Z 22007KT 02/M01 A3012 RMK A01 T00241009  RH  079%=      5-min Rain = 0
KTAT 180435Z 21007KT 02/M01 A3013 RMK A01 T00231010  RH  080%=      5-min Rain = 0
KTAT 180440Z 21007KT 02/M01 A3012 RMK A01 T00221010  RH  080%=      5-min Rain = 0
KTAT 180445Z 22007KT 02/M01 A3012 RMK A01 T00201011  RH  080%=      5-min Rain = 0
KTAT 180450Z 21006KT 02/M01 A3012 RMK A01 T00191012  RH  081%=      5-min Rain = 0
KTAT 180455Z 21007KT 02/M01 A3012 RMK A01 T00191011  RH  081%=      5-min Rain = 0
KTAT 180500Z 21007KT 02/M01 A3012 RMK A01 T00191012  RH  081%=      5-min Rain = 0
KTAT 180505Z 22007KT 02/M01 A3011 RMK A01 T00191011  RH  082%=      5-min Rain = 0
KTAT 180510Z 22007KT 02/M01 A3012 RMK A01 T00191011  RH  082%=      5-min Rain = 0
KTAT 180515Z 22007KT 02/M01 A3012 RMK A01 T00191011  RH  082%=      5-min Rain = 0
KTAT 180520Z 22006KT 02/M01 A3011 RMK A01 T00181011  RH  082%=      5-min Rain = 0
KTAT 180525Z 22006KT 02/M01 A3011 RMK A01 T00191010  RH  082%=      5-min Rain = 0
KTAT 180530Z 22007KT 02/M01 A3011 RMK A01 T00181011  RH  082%=      5-min Rain = 0
KTAT 180535Z 23007KT 02/M01 A3011 RMK A01 T00171011  RH  083%=      5-min Rain = 0
KTAT 180540Z 23007KT 02/M01 A3011 RMK A01 T00181011  RH  082%=      5-min Rain = 0
KTAT 180545Z 23007KT 02/M01 A3011 RMK A01 T00161013  RH  082%=      5-min Rain = 0
KTAT 180550Z 22007KT 01/M02 A301 RMK A01 T00131015  RH  082%=      5-min Rain = 0
KTAT 180555Z 22006KT 01/M01 A301 RMK A01 T00131014  RH  083%=      5-min Rain = 0

Page generated in 0.0092 seconds.